رشيد, مصر

11:05 AM EEST on سبتهبر 21, 2014 (GMT +0300)
Alexandria International | Change Station
CLOSE
Current Station
Airport
Location: Alexandria,
Elevation: 23 ft
Nearby Weather Stations

Elev 23 ft 31.18 °N, 29.95 °E | Updated 1 hour ago

Scattered Clouds
غيوم متفرقة
81 °F
Feels Like 82 °F
N
8
ريح متغير ريح from NNW

هذا اليوم
High -- | Low -- °F
--% Chance of Precip.
Yesterday
High -- | Low -- °F
Precip. -- في
6:45 AM 6:56 PM
الهلال الأخير, 8% visible
الضغط 29.95 في
وضوح الرؤية 6.2 أميال
سحابات غيوم متفرقة 2000 ft
مؤشر الحرارة 82 °F
نقطة الندى 63 °F
الرطوبة 54%
Rainfall 0.00 في
عمق الثلج Not available.
الأشعة فوق البنفسجية 5 out of 12
Pollen Not available.
جودة الهواء Not available.
Flu Activity Not available.
METAR HEAX 210700Z 33007KT 9999 SCT020 27/17 Q1014 NOSIG

More Conditions Fewer Conditions

الضغط 29.95 في
وضوح الرؤية 6.2 أميال
سحابات غيوم متفرقة 2000 ft
مؤشر الحرارة 82 °F
نقطة الندى 63 °F
الرطوبة 54%
Rainfall 0.00 في
عمق الثلج Not available.
الأشعة فوق البنفسجية 5 out of 12
Pollen Not available.
جودة الهواء Not available.
Flu Activity Not available.
METAR HEAX 210700Z 33007KT 9999 SCT020 27/17 Q1014 NOSIG

More Conditions Fewer Conditions

10-Day Weather Forecast

Almanac

علم الفلك

Sep. 21, 2014 Rise Set
Actual Time 6:45 AM EEST 6:56 PM EEST
Civil Twilight 6:21 AM EEST 7:20 PM EEST
Nautical Twilight 5:53 AM EEST 7:49 PM EEST
Astronomical Twilight 5:24 AM EEST 8:17 PM EEST
قمر 4:09 AM EEST 5:15 PM EEST
Length Of Visible Light 12h 59m
طول الیوم
12h 10m
Tomorrow will be 1m 53s shorter.
الهلال الأخير, 8% of the Moon is Illuminated
هذا اليوم
الهلال الأخير
Sep 24
New
Oct 1
الربع الاول
Oct 8
بدر
Oct 15
الربع الآخر

Yesterday's Extremes

Country Highs Country Lows

Community

WunderPhotos

Upload Photos

1,755,101 photos uploaded!

Nearby

جودة الهواء

Not available.

عمق الثلج

Not available.

Earthquake Activity

City Distance Mag. Time & Date
No recent earthquake activity has been reported nearby.
Minimum magnitude displayed is 2.5.

Coastal Water Temperatures

مكان درجات الحرارة
No Stations Reporting

Nearby Weather Stations